sensor_id;sensor_type;location;lat;lon;timestamp;P1;durP1;ratioP1;P2;durP2;ratioP2
7110;SDS011;3597;42.650;23.386;2023-10-13T00:00:58;2.30;;;2.20;;
7110;SDS011;3597;42.650;23.386;2023-10-13T00:03:24;2.30;;;2.20;;
7110;SDS011;3597;42.650;23.386;2023-10-13T00:05:50;2.03;;;2.03;;
7110;SDS011;3597;42.650;23.386;2023-10-13T00:08:17;2.30;;;2.30;;
7110;SDS011;3597;42.650;23.386;2023-10-13T00:10:45;2.30;;;2.20;;
7110;SDS011;3597;42.650;23.386;2023-10-13T00:13:12;2.40;;;2.30;;
7110;SDS011;3597;42.650;23.386;2023-10-13T00:18:28;1.93;;;1.93;;
7110;SDS011;3597;42.650;23.386;2023-10-13T00:21:02;2.33;;;2.23;;
7110;SDS011;3597;42.650;23.386;2023-10-13T00:23:38;2.60;;;2.50;;
7110;SDS011;3597;42.650;23.386;2023-10-13T00:26:04;2.17;;;2.13;;
7110;SDS011;3597;42.650;23.386;2023-10-13T00:28:34;2.23;;;2.23;;
7110;SDS011;3597;42.650;23.386;2023-10-13T00:31:23;2.27;;;2.23;;
7110;SDS011;3597;42.650;23.386;2023-10-13T00:33:48;2.70;;;2.60;;
7110;SDS011;3597;42.650;23.386;2023-10-13T00:36:16;2.27;;;2.27;;
7110;SDS011;3597;42.650;23.386;2023-10-13T00:38:44;2.23;;;2.23;;
7110;SDS011;3597;42.650;23.386;2023-10-13T00:41:13;2.20;;;2.20;;
7110;SDS011;3597;42.650;23.386;2023-10-13T00:43:44;2.40;;;2.40;;
7110;SDS011;3597;42.650;23.386;2023-10-13T00:46:28;2.43;;;2.43;;
7110;SDS011;3597;42.650;23.386;2023-10-13T00:48:58;2.47;;;2.37;;
7110;SDS011;3597;42.650;23.386;2023-10-13T00:51:23;2.50;;;2.40;;
7110;SDS011;3597;42.650;23.386;2023-10-13T00:54:01;1.90;;;1.90;;
7110;SDS011;3597;42.650;23.386;2023-10-13T00:56:31;2.17;;;2.17;;
7110;SDS011;3597;42.650;23.386;2023-10-13T00:58:57;2.37;;;2.37;;
7110;SDS011;3597;42.650;23.386;2023-10-13T01:01:27;2.60;;;2.50;;
7110;SDS011;3597;42.650;23.386;2023-10-13T01:03:57;2.80;;;2.60;;
7110;SDS011;3597;42.650;23.386;2023-10-13T01:06:33;2.57;;;2.50;;
7110;SDS011;3597;42.650;23.386;2023-10-13T01:09:00;2.40;;;2.40;;
7110;SDS011;3597;42.650;23.386;2023-10-13T01:11:36;2.50;;;2.30;;
7110;SDS011;3597;42.650;23.386;2023-10-13T01:14:07;2.70;;;2.60;;
7110;SDS011;3597;42.650;23.386;2023-10-13T01:16:33;2.63;;;2.53;;
7110;SDS011;3597;42.650;23.386;2023-10-13T01:19:01;2.47;;;2.47;;
7110;SDS011;3597;42.650;23.386;2023-10-13T01:21:30;2.70;;;2.50;;
7110;SDS011;3597;42.650;23.386;2023-10-13T01:23:57;2.43;;;2.37;;
7110;SDS011;3597;42.650;23.386;2023-10-13T01:26:23;2.27;;;2.17;;
7110;SDS011;3597;42.650;23.386;2023-10-13T01:28:51;2.47;;;2.37;;
7110;SDS011;3597;42.650;23.386;2023-10-13T01:31:21;2.73;;;2.37;;
7110;SDS011;3597;42.650;23.386;2023-10-13T01:33:52;2.30;;;2.30;;
7110;SDS011;3597;42.650;23.386;2023-10-13T01:36:23;2.67;;;2.67;;
7110;SDS011;3597;42.650;23.386;2023-10-13T01:38:50;2.67;;;2.67;;
7110;SDS011;3597;42.650;23.386;2023-10-13T01:41:16;2.60;;;2.60;;
7110;SDS011;3597;42.650;23.386;2023-10-13T01:43:43;2.87;;;2.77;;
7110;SDS011;3597;42.650;23.386;2023-10-13T01:46:09;2.47;;;2.47;;
7110;SDS011;3597;42.650;23.386;2023-10-13T01:48:35;2.40;;;2.40;;
7110;SDS011;3597;42.650;23.386;2023-10-13T01:51:05;2.60;;;2.50;;
7110;SDS011;3597;42.650;23.386;2023-10-13T01:53:35;2.60;;;2.50;;
7110;SDS011;3597;42.650;23.386;2023-10-13T01:56:06;2.50;;;2.40;;
7110;SDS011;3597;42.650;23.386;2023-10-13T01:58:39;2.60;;;2.50;;
7110;SDS011;3597;42.650;23.386;2023-10-13T02:01:08;2.93;;;2.83;;
7110;SDS011;3597;42.650;23.386;2023-10-13T02:03:35;2.53;;;2.53;;
7110;SDS011;3597;42.650;23.386;2023-10-13T02:06:06;2.73;;;2.67;;
7110;SDS011;3597;42.650;23.386;2023-10-13T02:08:35;2.40;;;2.40;;
7110;SDS011;3597;42.650;23.386;2023-10-13T02:11:05;2.63;;;2.53;;
7110;SDS011;3597;42.650;23.386;2023-10-13T02:13:32;2.80;;;2.70;;
7110;SDS011;3597;42.650;23.386;2023-10-13T02:15:57;3.40;;;2.70;;
7110;SDS011;3597;42.650;23.386;2023-10-13T02:18:27;2.67;;;2.57;;
7110;SDS011;3597;42.650;23.386;2023-10-13T02:20:55;2.60;;;2.50;;
7110;SDS011;3597;42.650;23.386;2023-10-13T02:23:22;2.40;;;2.30;;
7110;SDS011;3597;42.650;23.386;2023-10-13T02:25:49;2.60;;;2.60;;
7110;SDS011;3597;42.650;23.386;2023-10-13T02:28:25;2.60;;;2.60;;
7110;SDS011;3597;42.650;23.386;2023-10-13T02:30:53;2.10;;;2.10;;
7110;SDS011;3597;42.650;23.386;2023-10-13T02:33:19;2.47;;;2.43;;
7110;SDS011;3597;42.650;23.386;2023-10-13T02:35:50;2.80;;;2.80;;
7110;SDS011;3597;42.650;23.386;2023-10-13T02:38:18;2.30;;;2.30;;
7110;SDS011;3597;42.650;23.386;2023-10-13T02:40:52;2.20;;;2.20;;
7110;SDS011;3597;42.650;23.386;2023-10-13T02:43:19;2.00;;;2.00;;
7110;SDS011;3597;42.650;23.386;2023-10-13T02:45:53;2.20;;;2.10;;
7110;SDS011;3597;42.650;23.386;2023-10-13T02:48:26;2.63;;;2.47;;
7110;SDS011;3597;42.650;23.386;2023-10-13T02:50:59;2.80;;;2.70;;
7110;SDS011;3597;42.650;23.386;2023-10-13T02:53:30;3.20;;;3.20;;
7110;SDS011;3597;42.650;23.386;2023-10-13T02:55:56;3.13;;;3.03;;
7110;SDS011;3597;42.650;23.386;2023-10-13T02:58:31;2.83;;;2.73;;
7110;SDS011;3597;42.650;23.386;2023-10-13T03:01:07;2.90;;;2.80;;
7110;SDS011;3597;42.650;23.386;2023-10-13T03:03:45;2.37;;;2.37;;
7110;SDS011;3597;42.650;23.386;2023-10-13T03:06:19;2.80;;;2.60;;
7110;SDS011;3597;42.650;23.386;2023-10-13T03:09:18;2.30;;;2.30;;
7110;SDS011;3597;42.650;23.386;2023-10-13T03:11:46;2.20;;;2.13;;
7110;SDS011;3597;42.650;23.386;2023-10-13T03:14:18;2.40;;;2.40;;
7110;SDS011;3597;42.650;23.386;2023-10-13T03:17:05;2.87;;;2.87;;
7110;SDS011;3597;42.650;23.386;2023-10-13T03:19:32;2.67;;;2.57;;
7110;SDS011;3597;42.650;23.386;2023-10-13T03:22:01;2.70;;;2.60;;
7110;SDS011;3597;42.650;23.386;2023-10-13T03:24:35;2.40;;;2.40;;
7110;SDS011;3597;42.650;23.386;2023-10-13T03:27:01;2.40;;;2.40;;
7110;SDS011;3597;42.650;23.386;2023-10-13T03:29:37;2.47;;;2.47;;
7110;SDS011;3597;42.650;23.386;2023-10-13T03:32:10;3.07;;;2.90;;
7110;SDS011;3597;42.650;23.386;2023-10-13T03:34:43;2.63;;;2.57;;
7110;SDS011;3597;42.650;23.386;2023-10-13T03:37:20;2.70;;;2.60;;
7110;SDS011;3597;42.650;23.386;2023-10-13T03:40:04;2.90;;;2.80;;
7110;SDS011;3597;42.650;23.386;2023-10-13T03:42:48;3.33;;;3.33;;
7110;SDS011;3597;42.650;23.386;2023-10-13T03:45:23;2.67;;;2.67;;
7110;SDS011;3597;42.650;23.386;2023-10-13T03:47:50;3.27;;;3.07;;
7110;SDS011;3597;42.650;23.386;2023-10-13T03:50:19;2.73;;;2.60;;
7110;SDS011;3597;42.650;23.386;2023-10-13T03:53:07;3.00;;;2.87;;
7110;SDS011;3597;42.650;23.386;2023-10-13T03:55:38;3.17;;;2.97;;
7110;SDS011;3597;42.650;23.386;2023-10-13T03:58:03;4.13;;;3.93;;
7110;SDS011;3597;42.650;23.386;2023-10-13T04:00:29;2.80;;;2.80;;
7110;SDS011;3597;42.650;23.386;2023-10-13T04:02:56;4.10;;;2.87;;
7110;SDS011;3597;42.650;23.386;2023-10-13T04:05:28;2.97;;;2.80;;
7110;SDS011;3597;42.650;23.386;2023-10-13T04:08:03;2.83;;;2.73;;
7110;SDS011;3597;42.650;23.386;2023-10-13T04:10:48;2.93;;;2.73;;
7110;SDS011;3597;42.650;23.386;2023-10-13T04:13:16;2.70;;;2.60;;
7110;SDS011;3597;42.650;23.386;2023-10-13T04:15:44;3.03;;;2.83;;
7110;SDS011;3597;42.650;23.386;2023-10-13T04:18:28;2.73;;;2.63;;
7110;SDS011;3597;42.650;23.386;2023-10-13T04:21:12;2.73;;;2.63;;
7110;SDS011;3597;42.650;23.386;2023-10-13T04:23:56;2.37;;;2.37;;
7110;SDS011;3597;42.650;23.386;2023-10-13T04:26:45;2.23;;;2.23;;
7110;SDS011;3597;42.650;23.386;2023-10-13T04:29:31;2.30;;;2.30;;
7110;SDS011;3597;42.650;23.386;2023-10-13T04:32:15;2.03;;;2.03;;
7110;SDS011;3597;42.650;23.386;2023-10-13T04:34:57;2.60;;;2.50;;
7110;SDS011;3597;42.650;23.386;2023-10-13T04:37:35;2.30;;;2.20;;
7110;SDS011;3597;42.650;23.386;2023-10-13T04:40:15;3.10;;;2.90;;
7110;SDS011;3597;42.650;23.386;2023-10-13T04:42:44;2.40;;;2.40;;
7110;SDS011;3597;42.650;23.386;2023-10-13T04:45:22;3.53;;;3.40;;
7110;SDS011;3597;42.650;23.386;2023-10-13T04:47:57;4.63;;;4.43;;
7110;SDS011;3597;42.650;23.386;2023-10-13T04:50:45;3.80;;;3.70;;
7110;SDS011;3597;42.650;23.386;2023-10-13T04:53:13;3.10;;;3.00;;
7110;SDS011;3597;42.650;23.386;2023-10-13T04:56:04;3.00;;;2.80;;
7110;SDS011;3597;42.650;23.386;2023-10-13T04:58:47;2.87;;;2.77;;
7110;SDS011;3597;42.650;23.386;2023-10-13T05:01:31;2.80;;;2.70;;
7110;SDS011;3597;42.650;23.386;2023-10-13T05:04:15;3.47;;;2.60;;
7110;SDS011;3597;42.650;23.386;2023-10-13T05:06:47;2.43;;;2.33;;
7110;SDS011;3597;42.650;23.386;2023-10-13T05:09:31;2.60;;;2.60;;
7110;SDS011;3597;42.650;23.386;2023-10-13T05:12:15;2.40;;;2.30;;
7110;SDS011;3597;42.650;23.386;2023-10-13T05:14:59;4.40;;;2.70;;
7110;SDS011;3597;42.650;23.386;2023-10-13T05:17:43;2.80;;;2.70;;
7110;SDS011;3597;42.650;23.386;2023-10-13T05:20:27;2.70;;;2.50;;
7110;SDS011;3597;42.650;23.386;2023-10-13T05:23:11;3.13;;;2.47;;
7110;SDS011;3597;42.650;23.386;2023-10-13T05:25:55;2.53;;;2.33;;
7110;SDS011;3597;42.650;23.386;2023-10-13T05:28:39;2.80;;;2.70;;
7110;SDS011;3597;42.650;23.386;2023-10-13T05:31:22;2.57;;;2.47;;
7110;SDS011;3597;42.650;23.386;2023-10-13T05:34:07;2.93;;;2.73;;
7110;SDS011;3597;42.650;23.386;2023-10-13T05:36:50;2.90;;;2.80;;
7110;SDS011;3597;42.650;23.386;2023-10-13T05:39:34;2.60;;;2.50;;
7110;SDS011;3597;42.650;23.386;2023-10-13T05:42:18;2.90;;;2.50;;
7110;SDS011;3597;42.650;23.386;2023-10-13T05:45:02;2.10;;;2.10;;
7110;SDS011;3597;42.650;23.386;2023-10-13T05:47:34;2.07;;;2.07;;
7110;SDS011;3597;42.650;23.386;2023-10-13T05:50:11;2.50;;;2.40;;
7110;SDS011;3597;42.650;23.386;2023-10-13T05:52:46;2.73;;;2.63;;
7110;SDS011;3597;42.650;23.386;2023-10-13T05:55:24;3.10;;;3.00;;
7110;SDS011;3597;42.650;23.386;2023-10-13T05:58:09;2.93;;;2.83;;
7110;SDS011;3597;42.650;23.386;2023-10-13T06:00:53;2.90;;;2.80;;
7110;SDS011;3597;42.650;23.386;2023-10-13T06:03:37;3.20;;;3.00;;
7110;SDS011;3597;42.650;23.386;2023-10-13T06:06:21;3.43;;;3.13;;
7110;SDS011;3597;42.650;23.386;2023-10-13T06:09:05;3.87;;;3.20;;
7110;SDS011;3597;42.650;23.386;2023-10-13T06:11:49;3.67;;;3.47;;
7110;SDS011;3597;42.650;23.386;2023-10-13T06:14:33;3.03;;;2.93;;
7110;SDS011;3597;42.650;23.386;2023-10-13T06:17:22;3.37;;;3.20;;
7110;SDS011;3597;42.650;23.386;2023-10-13T06:20:06;2.97;;;2.80;;
7110;SDS011;3597;42.650;23.386;2023-10-13T06:22:50;2.90;;;2.80;;
7110;SDS011;3597;42.650;23.386;2023-10-13T06:25:34;3.40;;;3.10;;
7110;SDS011;3597;42.650;23.386;2023-10-13T06:28:18;2.67;;;2.67;;
7110;SDS011;3597;42.650;23.386;2023-10-13T06:31:03;7.13;;;2.90;;
7110;SDS011;3597;42.650;23.386;2023-10-13T06:33:32;3.00;;;2.90;;
7110;SDS011;3597;42.650;23.386;2023-10-13T06:36:03;3.03;;;2.93;;
7110;SDS011;3597;42.650;23.386;2023-10-13T06:38:37;3.10;;;2.90;;
7110;SDS011;3597;42.650;23.386;2023-10-13T06:41:05;3.83;;;3.03;;
7110;SDS011;3597;42.650;23.386;2023-10-13T06:43:32;3.83;;;3.63;;
7110;SDS011;3597;42.650;23.386;2023-10-13T06:46:04;3.20;;;3.10;;
7110;SDS011;3597;42.650;23.386;2023-10-13T06:48:30;2.80;;;2.70;;
7110;SDS011;3597;42.650;23.386;2023-10-13T06:51:02;3.07;;;2.97;;
7110;SDS011;3597;42.650;23.386;2023-10-13T06:53:46;2.93;;;2.80;;
7110;SDS011;3597;42.650;23.386;2023-10-13T06:56:15;3.20;;;3.00;;
7110;SDS011;3597;42.650;23.386;2023-10-13T06:59:01;3.23;;;2.90;;
7110;SDS011;3597;42.650;23.386;2023-10-13T07:01:29;3.20;;;3.00;;
7110;SDS011;3597;42.650;23.386;2023-10-13T07:03:55;3.30;;;3.00;;
7110;SDS011;3597;42.650;23.386;2023-10-13T07:06:26;3.50;;;3.20;;
7110;SDS011;3597;42.650;23.386;2023-10-13T07:08:52;4.03;;;3.10;;
7110;SDS011;3597;42.650;23.386;2023-10-13T07:11:18;4.20;;;3.90;;
7110;SDS011;3597;42.650;23.386;2023-10-13T07:13:58;3.50;;;3.20;;
7110;SDS011;3597;42.650;23.386;2023-10-13T07:16:35;3.30;;;3.20;;
7110;SDS011;3597;42.650;23.386;2023-10-13T07:19:11;3.60;;;3.40;;
7110;SDS011;3597;42.650;23.386;2023-10-13T07:21:42;3.60;;;3.30;;
7110;SDS011;3597;42.650;23.386;2023-10-13T07:24:11;3.33;;;3.23;;
7110;SDS011;3597;42.650;23.386;2023-10-13T07:26:38;4.07;;;3.70;;
7110;SDS011;3597;42.650;23.386;2023-10-13T07:29:08;3.83;;;3.63;;
7110;SDS011;3597;42.650;23.386;2023-10-13T07:31:36;3.70;;;3.50;;
7110;SDS011;3597;42.650;23.386;2023-10-13T07:34:03;3.43;;;3.20;;
7110;SDS011;3597;42.650;23.386;2023-10-13T07:36:38;4.07;;;3.77;;
7110;SDS011;3597;42.650;23.386;2023-10-13T07:39:05;3.73;;;3.63;;
7110;SDS011;3597;42.650;23.386;2023-10-13T07:41:50;3.97;;;3.77;;
7110;SDS011;3597;42.650;23.386;2023-10-13T07:44:19;4.47;;;3.90;;
7110;SDS011;3597;42.650;23.386;2023-10-13T07:46:49;4.37;;;4.07;;
7110;SDS011;3597;42.650;23.386;2023-10-13T07:49:23;4.30;;;4.10;;
7110;SDS011;3597;42.650;23.386;2023-10-13T07:51:50;4.47;;;4.03;;
7110;SDS011;3597;42.650;23.386;2023-10-13T07:54:22;4.10;;;3.80;;
7110;SDS011;3597;42.650;23.386;2023-10-13T07:56:48;4.00;;;3.87;;
7110;SDS011;3597;42.650;23.386;2023-10-13T07:59:13;3.50;;;3.23;;
7110;SDS011;3597;42.650;23.386;2023-10-13T08:01:41;3.80;;;3.60;;
7110;SDS011;3597;42.650;23.386;2023-10-13T08:04:10;4.80;;;4.50;;
7110;SDS011;3597;42.650;23.386;2023-10-13T08:06:47;4.60;;;4.20;;
7110;SDS011;3597;42.650;23.386;2023-10-13T08:09:13;4.67;;;4.37;;
7110;SDS011;3597;42.650;23.386;2023-10-13T08:12:08;5.03;;;4.53;;
7110;SDS011;3597;42.650;23.386;2023-10-13T08:14:37;5.00;;;4.70;;
7110;SDS011;3597;42.650;23.386;2023-10-13T08:17:07;4.67;;;4.23;;
7110;SDS011;3597;42.650;23.386;2023-10-13T08:19:35;5.63;;;4.67;;
7110;SDS011;3597;42.650;23.386;2023-10-13T08:22:14;5.03;;;4.53;;
7110;SDS011;3597;42.650;23.386;2023-10-13T08:24:43;4.90;;;4.60;;
7110;SDS011;3597;42.650;23.386;2023-10-13T08:27:08;4.23;;;4.03;;
7110;SDS011;3597;42.650;23.386;2023-10-13T08:29:41;6.17;;;4.00;;
7110;SDS011;3597;42.650;23.386;2023-10-13T08:32:38;5.00;;;4.53;;
7110;SDS011;3597;42.650;23.386;2023-10-13T08:35:23;4.70;;;4.50;;
7110;SDS011;3597;42.650;23.386;2023-10-13T08:37:55;4.80;;;4.50;;
7110;SDS011;3597;42.650;23.386;2023-10-13T08:40:23;5.03;;;4.43;;
7110;SDS011;3597;42.650;23.386;2023-10-13T08:43:18;5.03;;;4.53;;
7110;SDS011;3597;42.650;23.386;2023-10-13T08:45:43;7.23;;;5.50;;
7110;SDS011;3597;42.650;23.386;2023-10-13T08:48:12;5.20;;;4.80;;
7110;SDS011;3597;42.650;23.386;2023-10-13T08:53:16;5.53;;;5.13;;
7110;SDS011;3597;42.650;23.386;2023-10-13T08:58:39;4.90;;;4.70;;
7110;SDS011;3597;42.650;23.386;2023-10-13T09:04:08;4.27;;;4.00;;
7110;SDS011;3597;42.650;23.386;2023-10-13T09:06:53;5.03;;;4.60;;
7110;SDS011;3597;42.650;23.386;2023-10-13T09:09:32;5.30;;;4.87;;
7110;SDS011;3597;42.650;23.386;2023-10-13T09:12:17;5.17;;;4.63;;
7110;SDS011;3597;42.650;23.386;2023-10-13T09:14:54;5.20;;;4.97;;
7110;SDS011;3597;42.650;23.386;2023-10-13T09:17:24;5.00;;;4.63;;
7110;SDS011;3597;42.650;23.386;2023-10-13T09:20:02;5.87;;;4.50;;
7110;SDS011;3597;42.650;23.386;2023-10-13T09:22:50;5.00;;;4.73;;
7110;SDS011;3597;42.650;23.386;2023-10-13T09:25:31;5.43;;;4.83;;
7110;SDS011;3597;42.650;23.386;2023-10-13T09:30:45;5.13;;;4.57;;
7110;SDS011;3597;42.650;23.386;2023-10-13T09:33:11;5.68;;;5.20;;
7110;SDS011;3597;42.650;23.386;2023-10-13T09:35:45;5.17;;;4.70;;
7110;SDS011;3597;42.650;23.386;2023-10-13T09:38:18;5.43;;;4.93;;
7110;SDS011;3597;42.650;23.386;2023-10-13T09:40:43;4.80;;;4.50;;
7110;SDS011;3597;42.650;23.386;2023-10-13T09:43:18;5.17;;;4.97;;
7110;SDS011;3597;42.650;23.386;2023-10-13T09:45:47;5.27;;;4.80;;
7110;SDS011;3597;42.650;23.386;2023-10-13T09:48:38;5.17;;;4.67;;
7110;SDS011;3597;42.650;23.386;2023-10-13T09:51:14;6.50;;;4.37;;
7110;SDS011;3597;42.650;23.386;2023-10-13T09:53:55;4.60;;;4.22;;
7110;SDS011;3597;42.650;23.386;2023-10-13T09:56:26;5.07;;;4.78;;
7110;SDS011;3597;42.650;23.386;2023-10-13T09:59:06;4.38;;;4.18;;
7110;SDS011;3597;42.650;23.386;2023-10-13T10:01:39;4.30;;;4.10;;
7110;SDS011;3597;42.650;23.386;2023-10-13T10:04:15;5.03;;;4.03;;
7110;SDS011;3597;42.650;23.386;2023-10-13T10:09:28;4.33;;;4.00;;
7110;SDS011;3597;42.650;23.386;2023-10-13T10:12:24;4.50;;;4.20;;
7110;SDS011;3597;42.650;23.386;2023-10-13T10:15:09;3.92;;;3.70;;
7110;SDS011;3597;42.650;23.386;2023-10-13T10:17:45;4.95;;;4.55;;
7110;SDS011;3597;42.650;23.386;2023-10-13T10:20:12;3.55;;;3.33;;
7110;SDS011;3597;42.650;23.386;2023-10-13T10:22:57;3.95;;;3.50;;
7110;SDS011;3597;42.650;23.386;2023-10-13T10:25:33;5.85;;;3.92;;
7110;SDS011;3597;42.650;23.386;2023-10-13T10:28:11;3.58;;;3.28;;
7110;SDS011;3597;42.650;23.386;2023-10-13T10:30:40;3.50;;;3.40;;
7110;SDS011;3597;42.650;23.386;2023-10-13T10:33:07;3.15;;;3.03;;
7110;SDS011;3597;42.650;23.386;2023-10-13T10:35:38;3.53;;;3.22;;
7110;SDS011;3597;42.650;23.386;2023-10-13T10:38:08;2.90;;;2.80;;
7110;SDS011;3597;42.650;23.386;2023-10-13T10:40:50;3.33;;;3.22;;
7110;SDS011;3597;42.650;23.386;2023-10-13T10:43:43;2.63;;;2.53;;
7110;SDS011;3597;42.650;23.386;2023-10-13T10:48:36;3.22;;;2.90;;
7110;SDS011;3597;42.650;23.386;2023-10-13T10:51:03;2.78;;;2.67;;
7110;SDS011;3597;42.650;23.386;2023-10-13T10:53:33;2.88;;;2.78;;
7110;SDS011;3597;42.650;23.386;2023-10-13T10:56:09;2.80;;;2.70;;
7110;SDS011;3597;42.650;23.386;2023-10-13T10:58:57;2.78;;;2.60;;
7110;SDS011;3597;42.650;23.386;2023-10-13T11:01:25;2.70;;;2.60;;
7110;SDS011;3597;42.650;23.386;2023-10-13T11:04:05;2.83;;;2.67;;
7110;SDS011;3597;42.650;23.386;2023-10-13T11:06:44;3.22;;;2.85;;
7110;SDS011;3597;42.650;23.386;2023-10-13T11:09:11;2.78;;;2.65;;
7110;SDS011;3597;42.650;23.386;2023-10-13T11:11:52;3.20;;;3.10;;
7110;SDS011;3597;42.650;23.386;2023-10-13T11:16:51;2.83;;;2.72;;
7110;SDS011;3597;42.650;23.386;2023-10-13T11:19:38;3.33;;;3.13;;
7110;SDS011;3597;42.650;23.386;2023-10-13T11:22:17;3.00;;;2.80;;
7110;SDS011;3597;42.650;23.386;2023-10-13T11:25:26;2.85;;;2.85;;
7110;SDS011;3597;42.650;23.386;2023-10-13T11:27:55;3.35;;;3.10;;
7110;SDS011;3597;42.650;23.386;2023-10-13T11:30:22;3.08;;;2.97;;
7110;SDS011;3597;42.650;23.386;2023-10-13T11:33:00;4.20;;;3.47;;
7110;SDS011;3597;42.650;23.386;2023-10-13T11:35:33;3.60;;;3.50;;
7110;SDS011;3597;42.650;23.386;2023-10-13T11:38:14;4.43;;;4.22;;
7110;SDS011;3597;42.650;23.386;2023-10-13T11:40:50;5.28;;;5.18;;
7110;SDS011;3597;42.650;23.386;2023-10-13T11:43:38;3.90;;;3.80;;
7110;SDS011;3597;42.650;23.386;2023-10-13T11:46:07;3.40;;;3.30;;
7110;SDS011;3597;42.650;23.386;2023-10-13T11:48:33;5.35;;;3.40;;
7110;SDS011;3597;42.650;23.386;2023-10-13T11:51:02;4.00;;;3.90;;
7110;SDS011;3597;42.650;23.386;2023-10-13T11:53:34;4.00;;;3.80;;
7110;SDS011;3597;42.650;23.386;2023-10-13T11:56:00;4.00;;;3.90;;
7110;SDS011;3597;42.650;23.386;2023-10-13T11:58:26;3.95;;;3.92;;
7110;SDS011;3597;42.650;23.386;2023-10-13T12:00:54;4.82;;;4.60;;
7110;SDS011;3597;42.650;23.386;2023-10-13T12:03:32;4.22;;;4.00;;
7110;SDS011;3597;42.650;23.386;2023-10-13T12:06:16;4.57;;;4.40;;
7110;SDS011;3597;42.650;23.386;2023-10-13T12:08:58;4.20;;;4.10;;
7110;SDS011;3597;42.650;23.386;2023-10-13T12:11:59;6.60;;;5.03;;
7110;SDS011;3597;42.650;23.386;2023-10-13T12:14:25;4.68;;;4.47;;
7110;SDS011;3597;42.650;23.386;2023-10-13T12:17:27;4.85;;;4.43;;
7110;SDS011;3597;42.650;23.386;2023-10-13T12:19:59;4.60;;;4.50;;
7110;SDS011;3597;42.650;23.386;2023-10-13T12:22:34;5.22;;;5.03;;
7110;SDS011;3597;42.650;23.386;2023-10-13T12:25:20;4.75;;;4.63;;
7110;SDS011;3597;42.650;23.386;2023-10-13T12:27:54;4.40;;;4.20;;
7110;SDS011;3597;42.650;23.386;2023-10-13T12:30:25;4.65;;;4.55;;
7110;SDS011;3597;42.650;23.386;2023-10-13T12:33:09;4.38;;;4.28;;
7110;SDS011;3597;42.650;23.386;2023-10-13T12:35:35;2.97;;;2.97;;
7110;SDS011;3597;42.650;23.386;2023-10-13T12:38:10;2.88;;;2.67;;
7110;SDS011;3597;42.650;23.386;2023-10-13T12:41:01;3.05;;;2.90;;
7110;SDS011;3597;42.650;23.386;2023-10-13T12:43:48;2.90;;;2.90;;
7110;SDS011;3597;42.650;23.386;2023-10-13T12:46:32;2.95;;;2.95;;
7110;SDS011;3597;42.650;23.386;2023-10-13T12:49:16;2.30;;;2.20;;
7110;SDS011;3597;42.650;23.386;2023-10-13T12:52:02;2.40;;;2.30;;
7110;SDS011;3597;42.650;23.386;2023-10-13T12:54:27;2.45;;;2.40;;
7110;SDS011;3597;42.650;23.386;2023-10-13T12:57:00;2.28;;;2.10;;
7110;SDS011;3597;42.650;23.386;2023-10-13T12:59:26;2.10;;;2.00;;
7110;SDS011;3597;42.650;23.386;2023-10-13T13:01:52;3.25;;;2.20;;
7110;SDS011;3597;42.650;23.386;2023-10-13T13:04:18;1.80;;;1.80;;
7110;SDS011;3597;42.650;23.386;2023-10-13T13:06:45;2.50;;;2.40;;
7110;SDS011;3597;42.650;23.386;2023-10-13T13:09:11;2.05;;;1.95;;
7110;SDS011;3597;42.650;23.386;2023-10-13T13:11:36;2.22;;;2.13;;
7110;SDS011;3597;42.650;23.386;2023-10-13T13:14:05;2.33;;;2.22;;
7110;SDS011;3597;42.650;23.386;2023-10-13T13:16:33;3.00;;;2.80;;
7110;SDS011;3597;42.650;23.386;2023-10-13T13:18:59;2.50;;;2.40;;
7110;SDS011;3597;42.650;23.386;2023-10-13T13:21:34;2.47;;;2.38;;
7110;SDS011;3597;42.650;23.386;2023-10-13T13:24:03;2.47;;;2.47;;
7110;SDS011;3597;42.650;23.386;2023-10-13T13:26:30;2.30;;;2.20;;
7110;SDS011;3597;42.650;23.386;2023-10-13T13:28:58;2.33;;;2.33;;
7110;SDS011;3597;42.650;23.386;2023-10-13T13:31:24;2.22;;;2.13;;
7110;SDS011;3597;42.650;23.386;2023-10-13T13:33:54;2.45;;;2.45;;
7110;SDS011;3597;42.650;23.386;2023-10-13T13:36:20;2.92;;;2.92;;
7110;SDS011;3597;42.650;23.386;2023-10-13T13:38:47;2.78;;;2.67;;
7110;SDS011;3597;42.650;23.386;2023-10-13T13:41:17;3.60;;;3.33;;
7110;SDS011;3597;42.650;23.386;2023-10-13T13:43:43;3.50;;;3.40;;
7110;SDS011;3597;42.650;23.386;2023-10-13T13:46:17;3.88;;;3.78;;
7110;SDS011;3597;42.650;23.386;2023-10-13T13:48:45;4.10;;;4.00;;
7110;SDS011;3597;42.650;23.386;2023-10-13T13:51:13;4.70;;;4.50;;
7110;SDS011;3597;42.650;23.386;2023-10-13T13:53:44;4.50;;;4.40;;
7110;SDS011;3597;42.650;23.386;2023-10-13T13:56:13;4.60;;;4.25;;
7110;SDS011;3597;42.650;23.386;2023-10-13T13:58:43;3.67;;;3.60;;
7110;SDS011;3597;42.650;23.386;2023-10-13T14:01:15;4.03;;;3.85;;
7110;SDS011;3597;42.650;23.386;2023-10-13T14:03:44;4.13;;;3.90;;
7110;SDS011;3597;42.650;23.386;2023-10-13T14:06:14;4.13;;;4.03;;
7110;SDS011;3597;42.650;23.386;2023-10-13T14:08:46;4.63;;;4.10;;
7110;SDS011;3597;42.650;23.386;2023-10-13T14:11:19;4.20;;;4.00;;
7110;SDS011;3597;42.650;23.386;2023-10-13T14:13:48;4.25;;;3.92;;
7110;SDS011;3597;42.650;23.386;2023-10-13T14:16:17;4.22;;;4.00;;
7110;SDS011;3597;42.650;23.386;2023-10-13T14:18:46;4.45;;;4.15;;
7110;SDS011;3597;42.650;23.386;2023-10-13T14:21:12;3.67;;;3.38;;
7110;SDS011;3597;42.650;23.386;2023-10-13T14:26:15;3.22;;;3.10;;
7110;SDS011;3597;42.650;23.386;2023-10-13T14:28:50;3.47;;;3.28;;
7110;SDS011;3597;42.650;23.386;2023-10-13T14:31:35;2.90;;;2.80;;
7110;SDS011;3597;42.650;23.386;2023-10-13T14:34:04;2.60;;;2.50;;
7110;SDS011;3597;42.650;23.386;2023-10-13T14:36:30;3.03;;;2.90;;
7110;SDS011;3597;42.650;23.386;2023-10-13T14:38:59;3.03;;;2.83;;
7110;SDS011;3597;42.650;23.386;2023-10-13T14:41:25;2.30;;;2.20;;
7110;SDS011;3597;42.650;23.386;2023-10-13T14:43:51;3.10;;;2.78;;
7110;SDS011;3597;42.650;23.386;2023-10-13T14:46:16;2.87;;;2.63;;
7110;SDS011;3597;42.650;23.386;2023-10-13T14:48:48;2.40;;;2.30;;
7110;SDS011;3597;42.650;23.386;2023-10-13T14:51:13;2.60;;;2.58;;
7110;SDS011;3597;42.650;23.386;2023-10-13T14:53:42;5.17;;;2.90;;
7110;SDS011;3597;42.650;23.386;2023-10-13T14:56:11;2.17;;;2.08;;
7110;SDS011;3597;42.650;23.386;2023-10-13T14:58:37;2.88;;;2.67;;
7110;SDS011;3597;42.650;23.386;2023-10-13T15:01:13;2.33;;;2.30;;
7110;SDS011;3597;42.650;23.386;2023-10-13T15:03:42;2.60;;;2.40;;
7110;SDS011;3597;42.650;23.386;2023-10-13T15:06:15;2.63;;;2.50;;
7110;SDS011;3597;42.650;23.386;2023-10-13T15:08:45;2.60;;;2.50;;
7110;SDS011;3597;42.650;23.386;2023-10-13T15:11:11;2.67;;;2.47;;
7110;SDS011;3597;42.650;23.386;2023-10-13T15:13:43;2.20;;;2.20;;
7110;SDS011;3597;42.650;23.386;2023-10-13T15:16:12;3.70;;;2.77;;
7110;SDS011;3597;42.650;23.386;2023-10-13T15:18:48;2.90;;;2.80;;
7110;SDS011;3597;42.650;23.386;2023-10-13T15:21:20;2.97;;;2.80;;
7110;SDS011;3597;42.650;23.386;2023-10-13T15:23:51;5.47;;;2.90;;
7110;SDS011;3597;42.650;23.386;2023-10-13T15:26:18;2.87;;;2.70;;
7110;SDS011;3597;42.650;23.386;2023-10-13T15:28:46;3.73;;;3.13;;
7110;SDS011;3597;42.650;23.386;2023-10-13T15:31:15;3.13;;;3.00;;
7110;SDS011;3597;42.650;23.386;2023-10-13T15:33:59;4.13;;;3.70;;
7110;SDS011;3597;42.650;23.386;2023-10-13T15:36:26;3.60;;;3.30;;
7110;SDS011;3597;42.650;23.386;2023-10-13T15:38:52;2.90;;;2.70;;
7110;SDS011;3597;42.650;23.386;2023-10-13T15:41:24;4.03;;;2.57;;
7110;SDS011;3597;42.650;23.386;2023-10-13T15:43:50;3.93;;;2.93;;
7110;SDS011;3597;42.650;23.386;2023-10-13T15:46:17;1.97;;;1.97;;
7110;SDS011;3597;42.650;23.386;2023-10-13T15:48:46;4.00;;;2.63;;
7110;SDS011;3597;42.650;23.386;2023-10-13T15:51:18;2.70;;;2.50;;
7110;SDS011;3597;42.650;23.386;2023-10-13T15:53:44;2.80;;;2.60;;
7110;SDS011;3597;42.650;23.386;2023-10-13T15:56:12;2.23;;;2.23;;
7110;SDS011;3597;42.650;23.386;2023-10-13T15:58:40;2.30;;;2.20;;
7110;SDS011;3597;42.650;23.386;2023-10-13T16:01:09;2.50;;;2.27;;
7110;SDS011;3597;42.650;23.386;2023-10-13T16:03:38;1.80;;;1.80;;